createdAt,value
2022-11-02T00:03:00.835Z,11.10
2022-11-02T00:07:02.933Z,11.06
2022-11-02T00:11:05.108Z,11.03
2022-11-02T00:15:07.903Z,11.02
2022-11-02T00:19:10.295Z,11.00
2022-11-02T00:23:13.927Z,10.95
2022-11-02T00:27:15.980Z,10.97
2022-11-02T00:31:18.026Z,10.96
2022-11-02T00:35:20.078Z,11.00
2022-11-02T00:39:22.199Z,11.00
2022-11-02T00:43:24.277Z,10.98
2022-11-02T00:47:26.299Z,10.99
2022-11-02T00:51:29.705Z,10.99
2022-11-02T00:55:31.776Z,10.96
2022-11-02T00:59:37.897Z,10.96
2022-11-02T01:03:41.089Z,11.00
2022-11-02T01:07:43.088Z,10.99
2022-11-02T01:11:45.226Z,10.98
2022-11-02T01:15:49.735Z,10.93
2022-11-02T01:19:51.765Z,10.91
2022-11-02T01:23:55.470Z,10.86
2022-11-02T01:27:57.450Z,10.84
2022-11-02T01:31:59.444Z,10.81
2022-11-02T01:36:06.230Z,10.79
2022-11-02T01:40:08.825Z,10.77
2022-11-02T01:44:33.906Z,10.74
2022-11-02T01:48:43.372Z,10.74
2022-11-02T01:52:45.420Z,10.72
2022-11-02T01:56:52.381Z,10.71
2022-11-02T02:00:55.038Z,10.77
2022-11-02T02:05:06.073Z,10.79
2022-11-02T02:09:10.195Z,10.86
2022-11-02T02:13:13.751Z,10.96
2022-11-02T02:17:33.267Z,11.03
2022-11-02T02:21:54.429Z,11.07
2022-11-02T02:26:41.159Z,11.01
2022-11-02T02:30:58.811Z,10.98
2022-11-02T02:35:13.048Z,10.89
2022-11-02T02:39:43.134Z,10.84
2022-11-02T02:43:57.569Z,10.88
2022-11-02T02:48:20.959Z,10.97
2022-11-02T02:52:26.919Z,11.04
2022-11-02T02:56:36.284Z,11.08
2022-11-02T03:00:39.512Z,11.12
2022-11-02T03:04:41.712Z,11.17
2022-11-02T03:08:52.918Z,11.25
2022-11-02T03:13:05.835Z,11.27
2022-11-02T03:17:15.552Z,11.26
2022-11-02T03:21:38.184Z,11.26
2022-11-02T03:26:04.832Z,11.29
2022-11-02T03:30:19.441Z,11.25
2022-11-02T03:34:52.387Z,11.25
2022-11-02T03:39:01.971Z,11.26
2022-11-02T03:43:05.628Z,11.31
2022-11-02T03:47:12.532Z,11.36
2022-11-02T03:51:17.923Z,11.42
2022-11-02T03:55:26.049Z,11.43
2022-11-02T03:59:32.611Z,11.43
2022-11-02T04:03:41.097Z,11.44
2022-11-02T04:08:07.516Z,11.46
2022-11-02T04:12:28.421Z,11.47
2022-11-02T04:16:30.856Z,11.51
2022-11-02T04:20:35.337Z,11.52
2022-11-02T04:24:56.081Z,11.52
2022-11-02T04:28:59.322Z,11.53
2022-11-02T04:33:20.168Z,11.56
2022-11-02T04:37:47.383Z,11.53
2022-11-02T04:41:49.558Z,11.49
2022-11-02T04:46:05.494Z,11.47
2022-11-02T04:50:09.692Z,11.41
2022-11-02T04:54:11.819Z,11.27
2022-11-02T04:58:15.473Z,11.24
2022-11-02T05:02:18.141Z,11.24
2022-11-02T05:06:22.349Z,11.21
2022-11-02T05:10:25.339Z,11.22
2022-11-02T05:14:28.298Z,11.25
2022-11-02T05:18:31.563Z,11.23
2022-11-02T05:22:33.770Z,11.20
2022-11-02T05:26:35.931Z,11.26
2022-11-02T05:30:38.516Z,11.22
2022-11-02T05:34:41.575Z,11.09
2022-11-02T05:38:44.657Z,10.91
2022-11-02T05:42:47.655Z,10.76
2022-11-02T05:46:49.695Z,10.62
2022-11-02T05:50:59.179Z,10.50
2022-11-02T05:55:01.270Z,10.38
2022-11-02T05:59:03.386Z,10.30
2022-11-02T06:03:05.787Z,10.21
2022-11-02T06:07:08.069Z,10.17
2022-11-02T06:11:12.428Z,10.16
2022-11-02T06:15:14.493Z,10.15
2022-11-02T06:19:16.640Z,10.16
2022-11-02T06:23:18.749Z,10.12
2022-11-02T06:27:20.801Z,10.10
2022-11-02T06:31:23.664Z,10.05
2022-11-02T06:35:25.733Z,10.05
2022-11-02T06:39:27.802Z,10.09
2022-11-02T06:43:30.300Z,10.17
2022-11-02T06:47:33.882Z,10.16
2022-11-02T06:51:35.900Z,10.17
2022-11-02T06:55:38.135Z,10.24
2022-11-02T06:59:40.152Z,10.34
2022-11-02T07:03:42.243Z,10.31
2022-11-02T07:07:44.268Z,10.34
2022-11-02T07:11:46.410Z,10.45
2022-11-02T07:15:52.104Z,10.54
2022-11-02T07:19:54.130Z,10.65
2022-11-02T07:23:56.259Z,10.79
2022-11-02T07:28:02.226Z,10.86
2022-11-02T07:32:04.565Z,10.92
2022-11-02T07:36:06.873Z,10.97
2022-11-02T07:40:10.849Z,11.02
2022-11-02T07:44:12.871Z,11.14
2022-11-02T07:48:28.416Z,11.26
2022-11-02T07:52:30.398Z,11.30
2022-11-02T07:56:32.370Z,11.59
2022-11-02T08:00:39.313Z,11.90
2022-11-02T08:04:44.788Z,12.18
2022-11-02T08:08:47.279Z,12.45
2022-11-02T08:12:49.474Z,12.55
2022-11-02T08:16:52.392Z,12.55
2022-11-02T08:20:59.123Z,12.65
2022-11-02T08:25:01.199Z,12.71
2022-11-02T08:29:03.314Z,12.74
2022-11-02T08:33:07.879Z,12.80
2022-11-02T08:37:09.951Z,12.81
2022-11-02T08:41:11.959Z,12.84
2022-11-02T08:45:14.163Z,12.82
2022-11-02T08:49:18.668Z,12.74
2022-11-02T08:53:20.795Z,12.73
2022-11-02T08:57:22.808Z,12.78
2022-11-02T09:01:24.885Z,12.86
2022-11-02T09:05:29.086Z,12.89
2022-11-02T09:09:31.168Z,13.03
2022-11-02T09:13:33.217Z,13.04
2022-11-02T09:17:35.256Z,13.08
2022-11-02T09:21:37.647Z,13.20
2022-11-02T09:25:39.694Z,13.40
2022-11-02T09:29:41.689Z,13.52
2022-11-02T09:33:43.695Z,13.76
2022-11-02T09:37:49.982Z,14.17
2022-11-02T09:42:07.356Z,14.55
2022-11-02T09:46:16.682Z,14.66
2022-11-02T09:50:42.126Z,14.68
2022-11-02T09:54:49.370Z,14.68
2022-11-02T09:59:02.049Z,14.56
2022-11-02T10:03:16.361Z,14.42
2022-11-02T10:07:22.725Z,14.30
2022-11-02T10:11:40.962Z,14.07
2022-11-02T10:15:54.463Z,14.19
2022-11-02T10:19:59.913Z,14.39
2022-11-02T10:24:22.367Z,14.54
2022-11-02T10:28:29.182Z,14.55
2022-11-02T10:32:35.203Z,14.50
2022-11-02T10:36:37.220Z,14.50
2022-11-02T10:40:53.786Z,14.46
2022-11-02T10:45:17.754Z,14.46
2022-11-02T10:49:19.723Z,14.46
2022-11-02T10:57:43.959Z,14.64
2022-11-02T11:02:04.271Z,14.65
2022-11-02T11:06:06.443Z,14.66
2022-11-02T11:10:15.305Z,14.59
2022-11-02T11:23:25.135Z,14.66
2022-11-02T11:27:27.177Z,14.72
2022-11-02T11:31:30.840Z,14.76
2022-11-02T11:35:39.281Z,14.75
2022-11-02T11:39:45.287Z,14.69
2022-11-02T11:43:48.503Z,14.70
2022-11-02T11:47:54.212Z,14.76
2022-11-02T11:51:58.179Z,14.83
2022-11-02T11:56:00.830Z,14.86
2022-11-02T12:00:27.493Z,14.98
2022-11-02T12:04:37.379Z,15.07
2022-11-02T12:09:03.052Z,15.28
2022-11-02T12:13:15.525Z,15.46
2022-11-02T12:17:36.367Z,15.66
2022-11-02T12:21:48.815Z,15.87
2022-11-02T12:26:05.899Z,15.96
2022-11-02T12:30:20.140Z,15.91
2022-11-02T12:35:23.169Z,16.10
2022-11-02T12:39:41.813Z,16.30
2022-11-02T12:43:49.448Z,16.41
2022-11-02T12:47:59.014Z,16.33
2022-11-02T12:52:19.875Z,16.20
2022-11-02T12:56:39.279Z,16.08
2022-11-02T13:00:45.312Z,15.94
2022-11-02T13:05:08.047Z,15.83
2022-11-02T13:09:12.887Z,15.78
2022-11-02T13:13:19.554Z,15.75
2022-11-02T13:17:37.100Z,15.74
2022-11-02T13:21:46.521Z,15.71
2022-11-02T13:25:54.077Z,15.72
2022-11-02T13:30:01.630Z,15.70
2022-11-02T13:34:10.418Z,15.69
2022-11-02T13:38:12.354Z,15.68
2022-11-02T13:42:41.683Z,15.62
2022-11-02T13:46:57.753Z,15.61
2022-11-02T13:51:07.038Z,15.62
2022-11-02T13:55:15.949Z,15.59
2022-11-02T13:59:26.049Z,15.58
2022-11-02T14:03:46.800Z,15.54
2022-11-02T14:07:50.209Z,15.52
2022-11-02T14:12:22.186Z,15.48
2022-11-02T14:16:46.590Z,15.46
2022-11-02T14:20:48.639Z,15.47
2022-11-02T14:24:53.835Z,15.46
2022-11-02T14:28:56.284Z,15.41
2022-11-02T14:33:14.948Z,15.38
2022-11-02T14:37:35.851Z,15.29
2022-11-02T14:42:04.279Z,15.19
2022-11-02T14:46:41.829Z,15.14
2022-11-02T14:51:00.692Z,15.06
2022-11-02T14:55:17.980Z,14.97
2022-11-02T14:59:22.344Z,14.87
2022-11-02T15:03:24.315Z,14.81
2022-11-02T15:07:36.676Z,14.71
2022-11-02T15:11:56.973Z,14.61
2022-11-02T15:15:58.924Z,14.55
2022-11-02T15:20:09.921Z,14.42
2022-11-02T15:24:17.512Z,14.29
2022-11-02T15:28:24.046Z,14.16
2022-11-02T15:32:29.923Z,14.03
2022-11-02T15:36:43.461Z,13.91
2022-11-02T15:41:02.900Z,13.77
2022-11-02T15:50:08.226Z,13.54
2022-11-02T15:54:23.423Z,13.44
2022-11-02T15:58:33.360Z,13.30
2022-11-02T16:02:53.952Z,13.18
2022-11-02T16:06:56.046Z,13.06
2022-11-02T16:11:09.990Z,12.89
2022-11-02T16:15:14.980Z,12.76
2022-11-02T16:19:21.568Z,12.66
2022-11-02T16:23:26.780Z,12.55
2022-11-02T16:27:28.842Z,12.49
2022-11-02T16:31:31.444Z,12.48
2022-11-02T16:35:34.067Z,12.37
2022-11-02T16:39:39.537Z,12.29
2022-11-02T16:43:45.743Z,12.14
2022-11-02T16:47:48.119Z,12.01
2022-11-02T16:51:58.367Z,11.93
2022-11-02T16:56:30.663Z,11.85
2022-11-02T17:00:33.101Z,11.80
2022-11-02T17:04:40.729Z,11.71
2022-11-02T17:08:45.456Z,11.64
2022-11-02T17:12:48.628Z,11.50
2022-11-02T17:17:06.670Z,11.47
2022-11-02T17:21:30.223Z,11.44
2022-11-02T17:25:37.571Z,11.38
2022-11-02T17:29:39.662Z,11.31
2022-11-02T17:33:43.633Z,11.25
2022-11-02T17:37:45.761Z,11.12
2022-11-02T17:42:15.118Z,11.02
2022-11-02T17:46:17.221Z,10.93
2022-11-02T17:50:19.560Z,10.89
2022-11-02T17:54:21.720Z,10.82
2022-11-02T17:58:23.783Z,10.59
2022-11-02T18:02:25.948Z,10.55
2022-11-02T18:06:29.694Z,10.41
2022-11-02T18:10:34.482Z,10.21
2022-11-02T18:14:36.700Z,10.12
2022-11-02T18:18:38.740Z,10.03
2022-11-02T18:22:41.228Z,9.87
2022-11-02T18:26:46.793Z,9.72
2022-11-02T18:30:49.169Z,9.53
2022-11-02T18:34:51.155Z,9.37
2022-11-02T18:38:53.230Z,9.32
2022-11-02T18:42:55.236Z,9.34
2022-11-02T18:46:59.210Z,9.23
2022-11-02T18:51:04.518Z,9.09
2022-11-02T18:55:07.050Z,9.11
2022-11-02T18:59:09.209Z,9.15
2022-11-02T19:03:11.499Z,9.16
2022-11-02T19:07:32.326Z,9.10
2022-11-02T19:11:35.580Z,9.10
2022-11-02T19:15:42.505Z,9.11
2022-11-02T19:19:46.528Z,8.97
2022-11-02T19:23:48.567Z,8.71
2022-11-02T19:27:50.575Z,8.45
2022-11-02T19:31:52.613Z,8.40
2022-11-02T19:35:56.050Z,8.42
2022-11-02T19:39:58.146Z,8.37
2022-11-02T19:44:00.331Z,8.28
2022-11-02T19:48:02.593Z,8.29
2022-11-02T19:52:04.761Z,8.27
2022-11-02T19:56:11.278Z,8.26
2022-11-02T20:00:13.863Z,8.11
2022-11-02T20:04:15.904Z,8.14
2022-11-02T20:08:17.896Z,8.14
2022-11-02T20:12:19.898Z,8.14
2022-11-02T20:16:22.130Z,8.09
2022-11-02T20:20:24.374Z,8.04
2022-11-02T20:24:26.373Z,7.98
2022-11-02T20:28:28.673Z,7.91
2022-11-02T20:32:30.754Z,7.83
2022-11-02T20:36:32.870Z,7.84
2022-11-02T20:40:40.167Z,7.93
2022-11-02T20:44:49.020Z,8.05
2022-11-02T20:48:51.307Z,8.12
2022-11-02T20:52:55.275Z,8.19
2022-11-02T20:56:57.699Z,8.37
2022-11-02T21:00:59.797Z,8.51
2022-11-02T21:05:01.906Z,8.65
2022-11-02T21:09:09.068Z,8.75
2022-11-02T21:13:32.661Z,8.77
2022-11-02T21:17:35.023Z,8.80
2022-11-02T21:21:37.067Z,8.90
2022-11-02T21:25:39.173Z,9.05
2022-11-02T21:29:41.182Z,9.22
2022-11-02T21:33:44.656Z,9.31
2022-11-02T21:37:46.874Z,9.32
2022-11-02T21:41:48.920Z,9.43
2022-11-02T21:45:58.906Z,9.53
2022-11-02T21:50:02.253Z,9.51
2022-11-02T21:54:04.308Z,9.53
2022-11-02T21:58:06.623Z,9.52
2022-11-02T22:02:09.334Z,9.48
2022-11-02T22:06:11.771Z,9.49
2022-11-02T22:10:14.208Z,9.47
2022-11-02T22:14:16.245Z,9.45
2022-11-02T22:18:18.272Z,9.42
2022-11-02T22:22:20.322Z,9.40
2022-11-02T22:26:24.872Z,9.36
2022-11-02T22:30:29.336Z,9.34
2022-11-02T22:34:31.531Z,9.24
2022-11-02T22:38:48.804Z,9.14
2022-11-02T22:42:53.939Z,9.12
2022-11-02T22:46:55.982Z,9.08
2022-11-02T22:50:58.371Z,9.14
2022-11-02T22:55:00.406Z,9.23
2022-11-02T22:59:03.730Z,9.33
2022-11-02T23:03:06.011Z,9.45
2022-11-02T23:07:08.299Z,9.55
2022-11-02T23:11:22.577Z,9.65
2022-11-02T23:15:24.631Z,9.74
2022-11-02T23:19:29.467Z,9.72
2022-11-02T23:23:50.695Z,9.73
2022-11-02T23:28:16.799Z,9.78
2022-11-02T23:32:28.626Z,9.79
2022-11-02T23:36:30.654Z,9.79
2022-11-02T23:40:33.075Z,9.88
2022-11-02T23:44:35.125Z,9.81
2022-11-02T23:48:37.196Z,9.77
2022-11-02T23:52:57.934Z,9.76
2022-11-02T23:56:59.990Z,9.77
